createdAt,value
2019-04-21T00:00:35.528Z,8.30
2019-04-21T00:03:50.123Z,7.93
2019-04-21T00:07:14.461Z,7.97
2019-04-21T00:10:28.437Z,7.43
2019-04-21T00:13:27.988Z,7.63
2019-04-21T00:19:39.581Z,7.70
2019-04-21T00:22:58.808Z,8.00
2019-04-21T00:26:08.974Z,8.63
2019-04-21T00:29:31.418Z,8.27
2019-04-21T00:32:30.509Z,7.87
2019-04-21T00:35:27.461Z,7.70
2019-04-21T00:39:06.664Z,7.57
2019-04-21T00:41:59.614Z,7.40
2019-04-21T00:45:10.743Z,6.77
2019-04-21T00:48:23.621Z,7.03
2019-04-21T00:54:49.864Z,6.53
2019-04-21T00:57:58.575Z,7.13
2019-04-21T01:01:02.310Z,7.20
2019-04-21T01:04:13.946Z,6.67
2019-04-21T01:07:20.764Z,6.87
2019-04-21T01:10:24.456Z,6.77
2019-04-21T01:13:41.660Z,6.80
2019-04-21T01:22:43.241Z,6.40
2019-04-21T01:26:00.800Z,6.57
2019-04-21T01:29:15.778Z,5.77
2019-04-21T01:32:29.718Z,6.60
2019-04-21T01:35:40.361Z,6.37
2019-04-21T01:44:59.742Z,6.37
2019-04-21T01:48:06.555Z,5.80
2019-04-21T01:51:17.118Z,5.83
2019-04-21T01:54:35.278Z,6.57
2019-04-21T01:57:42.619Z,6.23
2019-04-21T02:04:24.025Z,5.93
2019-04-21T02:07:29.727Z,6.90
2019-04-21T02:10:42.317Z,6.17
2019-04-21T02:13:48.554Z,5.83
2019-04-21T02:16:54.193Z,5.70
2019-04-21T02:19:57.613Z,5.57
2019-04-21T02:26:23.136Z,6.10
2019-04-21T02:29:32.955Z,5.57
2019-04-21T02:32:47.955Z,5.93
2019-04-21T02:36:04.084Z,5.90
2019-04-21T02:39:16.446Z,5.13
2019-04-21T02:42:11.519Z,5.63
2019-04-21T02:51:54.221Z,5.50
2019-04-21T03:01:12.496Z,5.63
2019-04-21T03:04:32.194Z,6.00
2019-04-21T03:07:32.233Z,6.40
2019-04-21T03:14:05.967Z,6.03
2019-04-21T03:17:05.384Z,5.97
2019-04-21T03:20:18.966Z,6.13
2019-04-21T03:26:41.613Z,5.63
2019-04-21T03:29:48.295Z,6.07
2019-04-21T03:33:32.485Z,5.77
2019-04-21T03:39:01.147Z,7.17
2019-04-21T03:42:33.770Z,6.23
2019-04-21T04:02:03.908Z,6.73
2019-04-21T04:05:13.085Z,6.23
2019-04-21T04:08:44.786Z,5.43
2019-04-21T04:11:37.765Z,6.03
2019-04-21T04:14:47.353Z,6.33
2019-04-21T04:17:46.815Z,5.30
2019-04-21T04:21:06.063Z,6.43
2019-04-21T04:27:35.317Z,6.10
2019-04-21T04:36:57.034Z,6.43
2019-04-21T04:40:10.000Z,6.33
2019-04-21T04:43:44.610Z,6.63
2019-04-21T04:46:26.749Z,5.53
2019-04-21T04:49:43.431Z,6.40
2019-04-21T04:52:36.958Z,6.50
2019-04-21T04:55:48.042Z,6.07
2019-04-21T05:02:28.125Z,6.57
2019-04-21T05:08:39.454Z,6.57
2019-04-21T05:21:04.337Z,6.37
2019-04-21T05:23:55.776Z,6.63
2019-04-21T05:27:08.659Z,7.23
2019-04-21T05:30:29.576Z,7.33
2019-04-21T05:33:36.464Z,7.70
2019-04-21T05:36:59.533Z,7.60
2019-04-21T05:40:00.593Z,6.77
2019-04-21T05:43:20.229Z,7.53
2019-04-21T05:46:25.234Z,6.60
2019-04-21T05:49:34.091Z,7.33
2019-04-21T05:52:44.961Z,7.87
2019-04-21T05:56:04.892Z,7.30
2019-04-21T05:59:13.721Z,8.20
2019-04-21T06:02:25.667Z,8.33
2019-04-21T06:05:40.743Z,7.47
2019-04-21T06:08:52.542Z,7.57
2019-04-21T06:11:50.974Z,7.57
2019-04-21T06:18:13.027Z,7.27
2019-04-21T06:24:20.507Z,8.50
2019-04-21T06:27:32.497Z,8.00
2019-04-21T06:30:53.101Z,7.93
2019-04-21T06:33:50.841Z,7.97
2019-04-21T06:46:39.379Z,8.17
2019-04-21T06:49:41.183Z,8.57
2019-04-21T06:55:52.068Z,7.63
2019-04-21T06:59:01.458Z,7.27
2019-04-21T07:05:21.696Z,10.00
2019-04-21T07:08:34.486Z,10.13
2019-04-21T07:11:37.891Z,9.30
2019-04-21T07:17:59.519Z,9.90
2019-04-21T07:21:09.583Z,8.60
2019-04-21T07:24:21.736Z,9.23
2019-04-21T07:27:30.289Z,9.83
2019-04-21T07:30:39.217Z,8.73
2019-04-21T07:34:01.626Z,10.50
2019-04-21T07:36:55.846Z,11.30
2019-04-21T07:39:54.978Z,11.30
2019-04-21T07:43:06.630Z,12.10
2019-04-21T07:49:50.146Z,10.23
2019-04-21T07:55:51.266Z,11.73
2019-04-21T07:59:21.247Z,11.30
2019-04-21T08:02:23.370Z,10.65
2019-04-21T08:08:43.543Z,11.22
2019-04-21T08:11:50.574Z,9.85
2019-04-21T08:15:00.790Z,10.13
2019-04-21T08:18:20.571Z,10.70
2019-04-21T08:21:11.246Z,10.40
2019-04-21T08:24:28.559Z,10.65
2019-04-21T08:27:42.459Z,10.53
2019-04-21T08:30:44.438Z,9.90
2019-04-21T08:34:01.730Z,10.05
2019-04-21T08:37:00.205Z,9.83
2019-04-21T08:43:30.688Z,11.12
2019-04-21T08:46:32.938Z,9.93
2019-04-21T08:49:36.374Z,9.73
2019-04-21T08:52:48.859Z,10.38
2019-04-21T08:56:15.044Z,10.58
2019-04-21T08:59:26.822Z,9.73
2019-04-21T09:02:43.106Z,8.83
2019-04-21T09:05:42.641Z,9.08
2019-04-21T09:12:07.255Z,8.43
2019-04-21T09:15:08.051Z,8.85
2019-04-21T09:18:17.516Z,8.78
2019-04-21T09:21:32.722Z,8.95
2019-04-21T09:24:33.339Z,8.78
2019-04-21T09:27:42.195Z,8.63
2019-04-21T09:30:43.702Z,9.23
2019-04-21T09:33:48.753Z,8.10
2019-04-21T09:37:11.908Z,7.72
2019-04-21T09:40:03.052Z,7.40
2019-04-21T09:43:13.440Z,7.53
2019-04-21T09:46:20.753Z,7.72
2019-04-21T09:49:31.713Z,7.30
2019-04-21T09:52:44.855Z,7.87
2019-04-21T09:55:53.667Z,8.38
2019-04-21T09:59:07.237Z,8.48
2019-04-21T10:02:10.011Z,7.90
2019-04-21T10:05:12.359Z,7.60
2019-04-21T10:08:19.615Z,8.20
2019-04-21T10:11:26.890Z,7.50
2019-04-21T10:14:33.903Z,6.75
2019-04-21T10:17:43.943Z,6.92
2019-04-21T10:20:51.325Z,7.15
2019-04-21T10:23:59.776Z,6.70
2019-04-21T10:27:08.603Z,7.37
2019-04-21T10:30:16.362Z,7.70
2019-04-21T10:33:24.195Z,8.03
2019-04-21T10:36:31.272Z,7.08
2019-04-21T10:39:38.257Z,6.55
2019-04-21T10:42:46.011Z,7.12
2019-04-21T10:45:53.323Z,7.40
2019-04-21T10:52:08.905Z,7.28
2019-04-21T10:55:32.037Z,7.03
2019-04-21T10:58:26.711Z,7.33
2019-04-21T11:01:35.258Z,7.20
2019-04-21T11:04:44.028Z,7.40
2019-04-21T11:11:01.636Z,7.70
2019-04-21T11:14:10.465Z,7.08
2019-04-21T11:17:18.225Z,7.50
2019-04-21T11:20:26.907Z,7.20
2019-04-21T11:23:35.222Z,6.85
2019-04-21T11:26:42.624Z,6.53
2019-04-21T11:29:49.580Z,6.95
2019-04-21T11:32:57.141Z,6.67
2019-04-21T11:36:07.021Z,7.25
2019-04-21T11:39:27.279Z,6.58
2019-04-21T11:42:26.283Z,6.37
2019-04-21T11:45:39.972Z,7.05
2019-04-21T11:48:48.364Z,6.85
2019-04-21T11:51:56.507Z,6.92
2019-04-21T11:55:04.738Z,6.05
2019-04-21T11:58:11.944Z,5.78
2019-04-21T12:01:19.552Z,6.85
2019-04-21T12:04:27.653Z,6.20
2019-04-21T12:07:35.363Z,7.70
2019-04-21T12:10:43.064Z,6.58
2019-04-21T12:13:50.057Z,7.25
2019-04-21T12:16:57.265Z,6.12
2019-04-21T12:20:06.729Z,6.80
2019-04-21T12:23:16.484Z,6.00
2019-04-21T12:26:24.201Z,6.72
2019-04-21T12:29:33.594Z,6.28
2019-04-21T12:32:46.310Z,6.53
2019-04-21T12:39:03.314Z,6.17
2019-04-21T12:42:10.736Z,6.53
2019-04-21T12:45:17.611Z,5.80
2019-04-21T12:48:24.529Z,6.85
2019-04-21T12:51:31.382Z,6.30
2019-04-21T12:57:47.586Z,5.75
2019-04-21T13:00:55.027Z,6.45
2019-04-21T13:04:01.952Z,6.15
2019-04-21T13:07:09.864Z,5.85
2019-04-21T13:10:18.188Z,6.80
2019-04-21T13:13:26.175Z,6.60
2019-04-21T13:19:41.232Z,5.80
2019-04-21T13:22:50.170Z,5.85
2019-04-21T13:25:57.339Z,6.35
2019-04-21T13:32:14.349Z,5.95
2019-04-21T13:35:23.245Z,6.28
2019-04-21T13:38:38.737Z,6.10
2019-04-21T13:41:50.588Z,6.37
2019-04-21T13:44:50.848Z,5.78
2019-04-21T13:47:58.738Z,5.90
2019-04-21T13:51:07.123Z,5.95
2019-04-21T13:54:15.584Z,6.00
2019-04-21T13:57:22.932Z,6.28
2019-04-21T14:00:31.663Z,6.30
2019-04-21T14:03:39.648Z,6.10
2019-04-21T14:06:47.986Z,5.33
2019-04-21T14:10:00.726Z,6.15
2019-04-21T14:13:04.687Z,5.78
2019-04-21T14:16:12.035Z,6.10
2019-04-21T14:19:19.375Z,5.70
2019-04-21T14:25:33.593Z,5.35
2019-04-21T14:28:41.037Z,5.78
2019-04-21T14:31:48.480Z,5.62
2019-04-21T14:34:56.598Z,5.78
2019-04-21T14:38:04.819Z,5.22
2019-04-21T14:41:12.474Z,6.53
2019-04-21T14:44:20.721Z,6.53
2019-04-21T14:47:42.132Z,5.97
2019-04-21T14:50:54.595Z,5.25
2019-04-21T14:54:10.062Z,6.37
2019-04-21T14:57:17.256Z,5.90
2019-04-21T15:00:27.402Z,6.12
2019-04-21T15:03:34.447Z,6.05
2019-04-21T15:06:41.601Z,5.83
2019-04-21T15:10:01.441Z,6.47
2019-04-21T15:12:57.414Z,5.47
2019-04-21T15:19:12.774Z,6.40
2019-04-21T15:22:21.057Z,6.08
2019-04-21T15:25:30.204Z,6.30
2019-04-21T15:28:40.505Z,6.45
2019-04-21T15:31:48.386Z,6.40
2019-04-21T15:34:58.151Z,7.03
2019-04-21T15:38:04.731Z,6.37
2019-04-21T15:41:12.668Z,7.35
2019-04-21T15:44:20.853Z,7.62
2019-04-21T15:47:28.299Z,6.67
2019-04-21T15:53:44.260Z,7.53
2019-04-21T15:56:53.156Z,7.70
2019-04-21T16:00:02.801Z,6.65
2019-04-21T16:03:10.924Z,6.17
2019-04-21T16:06:19.417Z,6.72
2019-04-21T16:09:28.914Z,6.35
2019-04-21T16:15:46.312Z,7.70
2019-04-21T16:18:54.650Z,6.30
2019-04-21T16:22:03.392Z,6.28
2019-04-21T16:28:17.585Z,6.50
2019-04-21T16:31:24.857Z,6.00
2019-04-21T16:34:41.352Z,6.60
2019-04-21T16:37:41.609Z,6.22
2019-04-21T16:40:57.263Z,6.72
2019-04-21T16:43:58.912Z,5.62
2019-04-21T16:47:07.644Z,5.60
2019-04-21T16:50:15.986Z,5.85
2019-04-21T16:53:37.716Z,6.60
2019-04-21T16:56:50.099Z,6.25
2019-04-21T17:00:00.205Z,6.25
2019-04-21T17:03:08.593Z,6.03
2019-04-21T17:06:17.410Z,5.35
2019-04-21T17:09:24.567Z,5.72
2019-04-21T17:12:33.018Z,6.10
2019-04-21T17:15:53.087Z,5.87
2019-04-21T17:18:59.571Z,4.90
2019-04-21T17:21:57.743Z,5.10
2019-04-21T17:25:06.738Z,5.10
2019-04-21T17:28:15.471Z,5.10
2019-04-21T17:31:24.660Z,4.83
2019-04-21T17:34:33.445Z,4.50
2019-04-21T17:37:42.329Z,5.20
2019-04-21T17:40:49.609Z,5.03
2019-04-21T17:43:58.313Z,5.03
2019-04-21T17:47:17.896Z,4.80
2019-04-21T17:50:19.890Z,4.40
2019-04-21T17:53:38.260Z,4.97
2019-04-21T18:03:25.286Z,4.37
2019-04-21T18:06:25.809Z,3.73
2019-04-21T18:09:36.718Z,3.63
2019-04-21T18:12:36.238Z,3.77
2019-04-21T18:15:50.613Z,3.43
2019-04-21T18:18:44.234Z,3.40
2019-04-21T18:22:07.658Z,3.20
2019-04-21T18:25:28.155Z,3.33
2019-04-21T18:28:28.353Z,4.23
2019-04-21T18:31:45.039Z,5.07
2019-04-21T18:34:56.273Z,4.60
2019-04-21T18:38:14.257Z,5.00
2019-04-21T18:45:34.526Z,5.87
2019-04-21T18:48:19.083Z,5.80
2019-04-21T18:51:20.352Z,10.37
2019-04-21T18:54:47.234Z,6.33
2019-04-21T19:00:48.618Z,5.10
2019-04-21T19:03:58.297Z,5.23
2019-04-21T19:10:35.375Z,4.33
2019-04-21T19:14:23.128Z,5.20
2019-04-21T19:20:11.768Z,5.07
2019-04-21T19:23:27.506Z,4.90
2019-04-21T19:26:39.806Z,5.03
2019-04-21T19:29:45.569Z,5.37
2019-04-21T19:32:49.684Z,6.43
2019-04-21T19:35:41.504Z,5.60
2019-04-21T19:38:59.543Z,4.30
2019-04-21T19:42:12.114Z,4.57
2019-04-21T19:45:22.407Z,4.90
2019-04-21T19:48:47.522Z,5.40
2019-04-21T19:51:43.266Z,4.93
2019-04-21T19:54:44.463Z,4.10
2019-04-21T19:57:49.391Z,4.90
2019-04-21T20:04:06.306Z,4.80
2019-04-21T20:07:25.688Z,5.10
2019-04-21T20:10:44.511Z,4.90
2019-04-21T20:14:13.826Z,5.20
2019-04-21T20:17:00.638Z,4.53
2019-04-21T20:19:58.146Z,4.90
2019-04-21T20:23:13.207Z,4.97
2019-04-21T20:26:17.432Z,4.83
2019-04-21T20:29:44.600Z,4.83
2019-04-21T20:32:56.465Z,4.00
2019-04-21T20:36:12.344Z,6.10
2019-04-21T20:39:07.269Z,4.67
2019-04-21T20:42:24.279Z,4.97
2019-04-21T20:48:45.242Z,5.10
2019-04-21T20:52:07.991Z,5.27
2019-04-21T20:55:09.406Z,4.37
2019-04-21T20:58:09.158Z,5.67
2019-04-21T21:07:50.037Z,4.53
2019-04-21T21:10:50.019Z,5.70
2019-04-21T21:14:06.996Z,4.90
2019-04-21T21:17:28.386Z,5.50
2019-04-21T21:20:33.534Z,6.07
2019-04-21T21:29:52.372Z,6.47
2019-04-21T21:36:13.976Z,5.10
2019-04-21T21:39:21.595Z,5.10
2019-04-21T21:42:13.930Z,4.50
2019-04-21T21:45:26.980Z,4.37
2019-04-21T21:48:46.273Z,3.73
2019-04-21T21:51:55.946Z,4.03
2019-04-21T21:54:49.796Z,4.90
2019-04-21T21:58:01.788Z,4.30
2019-04-21T22:01:11.765Z,4.73
2019-04-21T22:04:26.138Z,4.63
2019-04-21T22:07:33.190Z,4.93
2019-04-21T22:10:39.159Z,4.67
2019-04-21T22:13:53.319Z,4.23
2019-04-21T22:17:12.266Z,4.70
2019-04-21T22:20:22.534Z,3.87
2019-04-21T22:23:24.192Z,4.03
2019-04-21T22:26:21.486Z,4.83
2019-04-21T22:29:38.181Z,4.57
2019-04-21T22:32:38.648Z,3.43
2019-04-21T22:35:53.330Z,3.77
2019-04-21T22:39:16.188Z,4.00
2019-04-21T22:42:12.139Z,4.00
2019-04-21T22:45:13.559Z,4.37
2019-04-21T22:48:24.584Z,3.87
2019-04-21T22:51:37.298Z,3.33
2019-04-21T22:54:41.301Z,4.07
2019-04-21T23:00:58.573Z,3.60
2019-04-21T23:04:04.706Z,4.20
2019-04-21T23:07:15.116Z,4.10
2019-04-21T23:10:21.141Z,4.10
2019-04-21T23:13:29.325Z,4.23
2019-04-21T23:16:40.266Z,3.83
2019-04-21T23:20:08.898Z,4.07
2019-04-21T23:23:16.309Z,3.77
2019-04-21T23:26:21.977Z,3.93
2019-04-21T23:29:38.969Z,4.50
2019-04-21T23:32:33.900Z,4.50
2019-04-21T23:35:35.214Z,3.87
2019-04-21T23:38:44.181Z,3.70
2019-04-21T23:41:51.191Z,3.67
2019-04-21T23:44:58.147Z,4.00
2019-04-21T23:48:19.681Z,3.73
2019-04-21T23:51:25.881Z,3.80
2019-04-21T23:54:23.012Z,3.90
2019-04-21T23:57:36.908Z,3.47
